Time;durP1;ratioP1;P1;durP2;ratioP2;P2;SDS_P1;SDS_P2;PMS_P1;PMS_P2;Temp;Humidity;BMP_temperature;BMP_pressure;BME280_temperature;BME280_humidity;BME280_pressure;Samples;Min_cycle;Max_cycle;Signal;HPM_P1;HPM_P2
2024/01/02 00:01:41;;;;;;;1.43;1.07;;;4.40;99.90;4.10;99806.00;;;;4899668;28;122807;-65
2024/01/02 00:04:07;;;;;;;1.20;0.83;;;4.30;99.90;4.00;99803.00;;;;4896927;28;122383;-66
2024/01/02 00:06:32;;;;;;;1.43;0.97;;;4.30;99.90;4.00;99799.00;;;;4900088;28;109651;-65
2024/01/02 00:08:58;;;;;;;4.33;1.70;;;4.30;99.90;4.00;99795.00;;;;4904351;28;108146;-65
2024/01/02 00:11:24;;;;;;;2.90;1.23;;;4.20;99.90;4.00;99791.00;;;;4899987;28;121523;-65
2024/01/02 00:13:49;;;;;;;6.83;1.37;;;4.20;99.90;3.90;99788.00;;;;4901643;28;93235;-65
2024/01/02 00:16:17;;;;;;;1.10;0.90;;;5.00;99.90;3.90;99788.00;;;;4902721;28;97087;-66
2024/01/02 00:18:42;;;;;;;1.63;1.03;;;4.20;99.90;3.90;99788.00;;;;4904743;28;93420;-65
2024/01/02 00:21:08;;;;;;;1.93;1.50;;;4.10;99.90;3.90;99796.00;;;;4902367;28;111492;-66
2024/01/02 00:23:34;;;;;;;3.43;1.30;;;4.10;99.90;3.90;99802.00;;;;4904151;28;123675;-66
2024/01/02 00:25:59;;;;;;;2.30;0.83;;;4.20;99.90;3.90;99798.00;;;;4900054;28;110276;-66
2024/01/02 00:28:25;;;;;;;1.60;1.10;;;4.60;99.90;3.90;99807.00;;;;4901909;28;109323;-66
2024/01/02 00:30:51;;;;;;;3.40;1.17;;;4.00;99.90;3.90;99793.00;;;;4900694;28;109287;-67
2024/01/02 00:33:16;;;;;;;10.43;1.53;;;4.10;99.90;3.90;99802.00;;;;4901660;28;122744;-67
2024/01/02 00:35:42;;;;;;;3.93;1.17;;;4.30;99.90;3.90;99793.00;;;;4903324;28;93210;-66
2024/01/02 00:38:09;;;;;;;4.03;1.13;;;4.10;99.90;3.90;99791.00;;;;4901239;28;92424;-66
2024/01/02 00:40:34;;;;;;;3.80;1.83;;;4.00;99.90;3.90;99785.00;;;;4900832;28;92897;-66
2024/01/02 00:43:00;;;;;;;2.07;1.07;;;4.40;99.90;3.90;99775.00;;;;4902986;28;93139;-66
2024/01/02 00:45:26;;;;;;;2.73;1.17;;;4.20;99.90;3.90;99788.00;;;;4901130;28;109027;-67
2024/01/02 00:47:51;;;;;;;3.50;1.33;;;4.20;99.90;3.90;99774.00;;;;4901361;28;92975;-66
2024/01/02 00:50:18;;;;;;;2.97;1.20;;;4.10;99.90;3.90;99773.00;;;;4899114;28;94411;-66
2024/01/02 00:52:43;;;;;;;5.80;1.67;;;4.20;99.90;3.90;99765.00;;;;4898972;28;93195;-65
2024/01/02 00:55:10;;;;;;;0.87;0.87;;;4.10;99.90;3.80;99768.00;;;;4905952;28;110970;-66
2024/01/02 00:57:35;;;;;;;1.67;1.33;;;4.70;99.90;3.80;99770.00;;;;4901457;28;93080;-66
2024/01/02 01:00:03;;;;;;;5.47;2.13;;;4.00;99.90;3.70;99768.00;;;;4900457;28;93050;-66
2024/01/02 01:02:29;;;;;;;1.57;0.97;;;4.00;99.90;3.70;99769.00;;;;4903659;28;93330;-66
2024/01/02 01:04:55;;;;;;;1.80;1.00;;;4.50;99.90;3.70;99767.00;;;;4902484;28;110287;-67
2024/01/02 01:07:20;;;;;;;2.27;0.97;;;3.90;99.90;3.60;99762.00;;;;4899793;28;109103;-67
2024/01/02 01:09:46;;;;;;;2.47;1.03;;;3.90;99.90;3.60;99769.00;;;;4903667;28;100783;-67
2024/01/02 01:12:12;;;;;;;2.63;0.80;;;3.90;99.90;3.60;99768.00;;;;4901519;28;123308;-67
2024/01/02 01:14:37;;;;;;;2.97;1.13;;;3.80;99.90;3.60;99769.00;;;;4904562;28;94522;-66
2024/01/02 01:17:07;;;;;;;7.60;1.43;;;4.40;99.90;3.60;99766.00;;;;4900555;28;109392;-66
2024/01/02 01:19:33;;;;;;;3.00;0.90;;;3.90;99.90;3.60;99765.00;;;;4897487;28;93431;-67
2024/01/02 01:21:59;;;;;;;1.53;1.27;;;3.70;99.90;3.60;99766.00;;;;4900037;28;104515;-66
2024/01/02 01:24:25;;;;;;;2.00;1.20;;;3.80;99.90;3.60;99763.00;;;;4900541;28;92867;-67
2024/01/02 01:26:52;;;;;;;3.60;0.80;;;4.30;99.90;3.60;99768.00;;;;4903642;28;108838;-67
2024/01/02 01:29:24;;;;;;;3.13;1.03;;;3.90;99.90;3.60;99763.00;;;;4902115;28;94102;-67
2024/01/02 01:31:50;;;;;;;1.07;0.97;;;3.90;99.90;3.60;99765.00;;;;4899826;28;93916;-67
2024/01/02 01:34:16;;;;;;;9.03;1.37;;;3.90;99.90;3.60;99754.00;;;;4905160;28;95195;-67
2024/01/02 01:36:42;;;;;;;2.50;1.43;;;3.80;99.90;3.50;99754.00;;;;4904172;28;92984;-67
2024/01/02 01:39:08;;;;;;;1.57;1.47;;;3.80;99.90;3.50;99763.00;;;;4902334;28;123141;-66
2024/01/02 01:41:33;;;;;;;4.70;1.47;;;3.80;99.90;3.60;99764.00;;;;4903531;28;108169;-67
2024/01/02 01:43:59;;;;;;;4.40;1.50;;;3.80;99.90;3.60;99748.00;;;;4903762;28;110525;-67
2024/01/02 01:46:32;;;;;;;2.07;1.77;;;3.50;99.90;3.60;99748.00;;;;4900963;28;107865;-67
2024/01/02 01:48:57;;;;;;;1.33;1.03;;;3.80;99.90;3.60;99740.00;;;;4891315;28;113918;-67
2024/01/02 01:51:23;;;;;;;2.70;1.60;;;4.50;99.90;3.50;99741.00;;;;4906000;28;121932;-67
2024/01/02 01:53:50;;;;;;;5.20;1.40;;;3.80;99.90;3.50;99738.00;;;;4904522;28;109131;-67
2024/01/02 01:56:16;;;;;;;6.97;1.23;;;3.70;99.90;3.50;99734.00;;;;4919486;28;93129;-68
2024/01/02 01:58:44;;;;;;;1.20;0.77;;;3.70;99.90;3.50;99741.00;;;;4916316;28;122870;-67
2024/01/02 02:01:10;;;;;;;2.27;0.70;;;3.70;99.90;3.50;99745.00;;;;4901892;28;121565;-66
2024/01/02 02:03:37;;;;;;;4.67;1.30;;;3.70;99.90;3.50;99739.00;;;;4903402;28;110815;-65
2024/01/02 02:06:02;;;;;;;1.03;1.00;;;3.70;99.90;3.50;99744.00;;;;4907483;28;94652;-65
2024/01/02 02:08:28;;;;;;;1.37;0.90;;;3.70;99.90;3.50;99736.00;;;;4904092;28;112114;-66
2024/01/02 02:10:54;;;;;;;1.07;0.83;;;3.80;99.90;3.50;99739.00;;;;4900905;28;121888;-65
2024/01/02 02:13:21;;;;;;;2.30;1.20;;;4.30;99.90;3.50;99728.00;;;;4915559;28;110677;-66
2024/01/02 02:15:48;;;;;;;3.67;1.27;;;3.70;99.90;3.40;99744.00;;;;4908136;28;102372;-66
2024/01/02 02:18:14;;;;;;;5.60;1.00;;;3.60;99.90;3.40;99731.00;;;;4902762;28;92860;-66
2024/01/02 02:20:40;;;;;;;1.87;0.97;;;3.60;99.90;3.40;99743.00;;;;4900218;28;112250;-66
2024/01/02 02:23:06;;;;;;;4.90;1.47;;;3.60;99.90;3.30;99737.00;;;;4899397;28;110460;-66
2024/01/02 02:25:31;;;;;;;1.13;0.70;;;3.60;99.90;3.30;99729.00;;;;4902796;28;92886;-66
2024/01/02 02:27:57;;;;;;;4.97;1.53;;;3.50;99.90;3.20;99727.00;;;;4908654;28;112999;-67
2024/01/02 02:30:23;;;;;;;2.10;1.07;;;3.70;99.90;3.20;99717.00;;;;4903316;28;121922;-66
2024/01/02 02:32:49;;;;;;;1.37;1.23;;;3.50;99.90;3.20;99728.00;;;;4902321;28;93370;-66
2024/01/02 02:35:14;;;;;;;1.03;0.67;;;3.50;99.90;3.20;99720.00;;;;4900380;28;108763;-66
2024/01/02 02:37:40;;;;;;;3.43;1.17;;;3.40;99.90;3.10;99716.00;;;;4899792;28;108346;-66
2024/01/02 02:40:06;;;;;;;1.40;1.23;;;3.30;99.90;3.10;99717.00;;;;4900292;28;123238;-66
2024/01/02 02:42:32;;;;;;;1.67;0.67;;;3.40;99.90;3.10;99712.00;;;;4903372;28;92916;-66
2024/01/02 02:44:59;;;;;;;5.67;1.57;;;3.30;99.90;3.10;99706.00;;;;4899672;28;108377;-67
2024/01/02 02:47:25;;;;;;;5.10;1.60;;;3.30;99.90;3.10;99696.00;;;;4901041;28;102782;-65
2024/01/02 02:49:51;;;;;;;1.10;1.03;;;3.30;99.90;3.00;99701.00;;;;4903984;28;93810;-65
2024/01/02 02:52:19;;;;;;;2.13;1.50;;;3.20;99.90;3.00;99698.00;;;;4903847;28;94776;-65
2024/01/02 02:54:50;;;;;;;1.53;1.23;;;4.10;99.90;3.00;99697.00;;;;4901518;28;92986;-65
2024/01/02 02:57:16;;;;;;;6.20;1.30;;;3.30;99.90;2.90;99695.00;;;;4899598;28;122443;-66
2024/01/02 02:59:42;;;;;;;1.30;0.60;;;3.20;99.90;2.90;99698.00;;;;4902999;28;119593;-65
2024/01/02 03:02:07;;;;;;;1.30;0.97;;;3.70;99.90;2.90;99694.00;;;;4902556;28;111615;-65
2024/01/02 03:04:33;;;;;;;1.03;0.50;;;3.20;99.90;2.80;99692.00;;;;4902668;28;108010;-65
2024/01/02 03:06:59;;;;;;;1.30;0.77;;;3.10;99.90;2.90;99687.00;;;;4898714;28;93866;-66
2024/01/02 03:09:24;;;;;;;1.90;0.83;;;3.10;99.90;2.90;99681.00;;;;4903835;28;124212;-65
2024/01/02 03:11:50;;;;;;;1.47;0.70;;;3.20;99.90;2.80;99685.00;;;;4898524;28;109946;-65
2024/01/02 03:14:16;;;;;;;3.20;0.83;;;3.00;99.90;2.80;99681.00;;;;4904227;28;108585;-66
2024/01/02 03:16:42;;;;;;;0.90;0.40;;;3.10;99.90;2.80;99670.00;;;;4901464;28;122389;-67
2024/01/02 03:19:07;;;;;;;1.20;1.10;;;3.10;99.90;2.80;99671.00;;;;4905311;28;93367;-66
2024/01/02 03:21:33;;;;;;;0.97;0.97;;;3.20;99.90;2.80;99659.00;;;;4902146;28;110506;-66
2024/01/02 03:23:59;;;;;;;2.03;1.23;;;3.00;99.90;2.90;99669.00;;;;4901345;28;108429;-65
2024/01/02 03:26:25;;;;;;;1.97;0.93;;;3.50;99.90;2.90;99665.00;;;;4898779;28;93268;-65
2024/01/02 03:28:50;;;;;;;0.70;0.70;;;3.10;99.90;2.90;99656.00;;;;4897902;28;93760;-66
2024/01/02 03:31:16;;;;;;;5.60;0.87;;;3.10;99.90;2.90;99651.00;;;;4898976;28;109668;-65
2024/01/02 03:33:42;;;;;;;1.80;0.87;;;3.10;99.90;2.90;99645.00;;;;4902371;28;94130;-65
2024/01/02 03:36:18;;;;;;;2.60;1.20;;;3.90;99.90;2.90;99633.00;;;;4899593;28;123266;-67
2024/01/02 03:38:48;;;;;;;3.33;0.97;;;3.20;99.90;2.90;99633.00;;;;4903662;28;93956;-67
2024/01/02 03:41:14;;;;;;;7.03;0.73;;;3.20;99.90;2.90;99624.00;;;;4901751;28;95723;-67
2024/01/02 03:43:40;;;;;;;2.53;0.90;;;3.10;99.90;2.80;99617.00;;;;4901324;28;94602;-66
2024/01/02 03:46:06;;;;;;;1.83;1.03;;;3.10;99.90;2.80;99612.00;;;;4899862;28;114176;-68
2024/01/02 03:48:32;;;;;;;3.40;1.37;;;3.10;99.90;2.80;99609.00;;;;4899809;28;122670;-66
2024/01/02 03:51:00;;;;;;;0.50;0.50;;;3.10;99.90;2.80;99604.00;;;;4901042;28;93227;-65
2024/01/02 03:53:26;;;;;;;2.10;0.60;;;3.10;99.90;2.80;99595.00;;;;4903471;28;92134;-66
2024/01/02 03:55:52;;;;;;;1.03;0.90;;;3.00;99.90;2.80;99584.00;;;;4897916;28;109209;-66
2024/01/02 03:58:17;;;;;;;0.50;0.50;;;3.00;99.90;2.80;99582.00;;;;4902017;28;121980;-66
2024/01/02 04:00:43;;;;;;;0.60;0.57;;;3.10;99.90;2.80;99577.00;;;;4903626;28;109551;-66
2024/01/02 04:03:09;;;;;;;1.30;1.00;;;3.40;99.90;2.80;99577.00;;;;4901331;28;93090;-68
2024/01/02 04:05:36;;;;;;;4.47;0.77;;;3.70;99.90;2.80;99572.00;;;;4905340;28;93396;-66
2024/01/02 04:08:01;;;;;;;0.77;0.77;;;3.00;99.90;2.80;99573.00;;;;4900278;28;123111;-66
2024/01/02 04:10:27;;;;;;;0.50;0.50;;;3.10;99.90;2.80;99570.00;;;;4898940;28;93004;-66
2024/01/02 04:12:53;;;;;;;0.70;0.57;;;3.00;99.90;2.80;99564.00;;;;4900211;28;106970;-66
2024/01/02 04:15:18;;;;;;;0.50;0.50;;;3.00;99.90;2.80;99555.00;;;;4900812;28;121675;-66
2024/01/02 04:17:44;;;;;;;0.70;0.50;;;3.00;99.90;2.80;99557.00;;;;4900905;28;123440;-66
2024/01/02 04:20:10;;;;;;;0.80;0.67;;;3.10;99.90;2.90;99548.00;;;;4901862;28;94031;-66
2024/01/02 04:22:36;;;;;;;0.50;0.23;;;3.20;99.90;2.90;99541.00;;;;4900550;28;92945;-66
2024/01/02 04:25:02;;;;;;;4.80;0.43;;;3.60;99.90;2.90;99543.00;;;;4901453;28;106753;-66
2024/01/02 04:27:27;;;;;;;1.20;0.77;;;3.20;99.90;3.00;99540.00;;;;4902578;28;118421;-66
2024/01/02 04:29:53;;;;;;;3.80;0.40;;;3.10;99.90;3.00;99528.00;;;;4900708;28;92917;-67
2024/01/02 04:32:19;;;;;;;0.37;0.20;;;3.20;99.90;3.10;99531.00;;;;4907993;28;95523;-69
2024/01/02 04:34:44;;;;;;;2.33;0.60;;;3.30;99.90;3.20;99525.00;;;;4903156;28;122224;-68
2024/01/02 04:37:11;;;;;;;0.40;0.40;;;3.80;99.90;3.20;99520.00;;;;4896656;28;121588;-68
2024/01/02 04:39:40;;;;;;;0.37;0.27;;;3.40;99.90;3.30;99515.00;;;;4900742;28;92842;-67
2024/01/02 04:42:05;;;;;;;3.70;0.90;;;3.50;99.90;3.40;99515.00;;;;4900850;28;107349;-69
2024/01/02 04:44:31;;;;;;;1.63;0.67;;;3.60;99.90;3.40;99506.00;;;;4901491;28;107546;-67
2024/01/02 04:46:57;;;;;;;0.67;0.60;;;3.60;99.90;3.50;99506.00;;;;4899947;28;96190;-66
2024/01/02 04:49:23;;;;;;;0.60;0.40;;;3.70;99.90;3.50;99510.00;;;;4898270;28;97886;-67
2024/01/02 04:51:48;;;;;;;3.53;1.20;;;3.70;99.90;3.60;99500.00;;;;4903379;28;92766;-68
2024/01/02 04:54:14;;;;;;;0.80;0.80;;;4.60;99.90;3.60;99500.00;;;;4900475;28;123782;-68
2024/01/02 04:56:40;;;;;;;0.30;0.30;;;4.70;99.90;3.70;99503.00;;;;4902010;28;92960;-68
2024/01/02 04:59:06;;;;;;;0.80;0.53;;;3.90;99.90;3.70;99498.00;;;;4899041;28;109946;-66
2024/01/02 05:01:32;;;;;;;2.60;1.63;;;3.90;99.90;3.70;99501.00;;;;4899551;28;102496;-69
2024/01/02 05:03:57;;;;;;;0.70;0.60;;;4.60;99.90;3.70;99493.00;;;;4905428;28;123622;-68
2024/01/02 05:06:29;;;;;;;1.87;0.60;;;4.30;99.90;3.80;99495.00;;;;4901149;28;122544;-67
2024/01/02 05:08:56;;;;;;;0.40;0.40;;;4.00;99.90;3.80;99494.00;;;;4902874;28;110247;-68
2024/01/02 05:11:22;;;;;;;11.83;0.70;;;4.80;99.90;3.80;99479.00;;;;4906915;28;95112;-69
2024/01/02 05:13:48;;;;;;;3.93;0.50;;;4.00;99.90;3.80;99471.00;;;;4900280;28;115263;-68
2024/01/02 05:16:14;;;;;;;0.80;0.80;;;4.10;99.90;3.80;99465.00;;;;4904624;28;94641;-67
2024/01/02 05:18:40;;;;;;;0.80;0.77;;;4.40;99.90;3.80;99463.00;;;;4904612;28;109479;-66
2024/01/02 05:21:07;;;;;;;2.47;0.77;;;4.10;99.90;3.90;99458.00;;;;4901570;28;109209;-67
2024/01/02 05:23:41;;;;;;;0.73;0.73;;;4.10;99.90;3.90;99459.00;;;;4905009;28;94586;-67
2024/01/02 05:26:07;;;;;;;1.17;0.70;;;4.10;99.90;3.90;99455.00;;;;4900558;28;120975;-67
2024/01/02 05:28:32;;;;;;;2.63;0.40;;;4.10;99.90;4.00;99462.00;;;;4904086;28;109805;-67
2024/01/02 05:30:58;;;;;;;1.83;1.03;;;4.10;99.90;4.00;99457.00;;;;4901471;28;108024;-67
2024/01/02 05:33:24;;;;;;;0.53;0.50;;;4.20;99.90;4.00;99450.00;;;;4901642;28;93520;-67
2024/01/02 05:35:49;;;;;;;5.43;0.67;;;4.20;99.90;4.00;99451.00;;;;4903706;28;117644;-67
2024/01/02 05:38:15;;;;;;;0.93;0.53;;;4.20;99.90;4.10;99451.00;;;;4902567;28;108746;-67
2024/01/02 05:40:42;;;;;;;2.90;1.40;;;4.20;99.90;4.10;99438.00;;;;4902228;28;92937;-68
2024/01/02 05:43:07;;;;;;;1.67;0.80;;;4.30;99.90;4.10;99443.00;;;;4899768;28;93076;-70
2024/01/02 05:45:35;;;;;;;0.40;0.40;;;4.30;99.90;4.20;99430.00;;;;4900095;28;123278;-68
2024/01/02 05:48:00;;;;;;;0.93;0.43;;;4.30;99.90;4.20;99424.00;;;;4903869;28;93104;-66
2024/01/02 05:50:26;;;;;;;0.70;0.60;;;4.40;99.90;4.30;99414.00;;;;4901926;28;108226;-68
2024/01/02 05:52:52;;;;;;;0.30;0.30;;;4.40;99.90;4.30;99403.00;;;;4901611;28;107574;-70
2024/01/02 05:55:18;;;;;;;0.93;0.90;;;5.20;99.90;4.30;99409.00;;;;4901418;28;120547;-68
2024/01/02 05:57:44;;;;;;;1.90;1.30;;;4.50;99.90;4.30;99403.00;;;;4903348;28;93293;-69
2024/01/02 06:00:10;;;;;;;4.10;1.37;;;4.40;99.90;4.40;99404.00;;;;4899993;28;105340;-68
2024/01/02 06:02:35;;;;;;;0.93;0.70;;;4.60;99.90;4.40;99404.00;;;;4902321;28;112027;-68
2024/01/02 06:05:01;;;;;;;0.57;0.57;;;4.60;99.90;4.40;99390.00;;;;4899875;28;94295;-69
2024/01/02 06:07:27;;;;;;;5.00;0.87;;;4.60;99.90;4.50;99384.00;;;;4901215;28;93338;-70
2024/01/02 06:09:53;;;;;;;0.30;0.30;;;4.60;99.90;4.50;99383.00;;;;4900505;28;108108;-69
2024/01/02 06:12:18;;;;;;;0.50;0.47;;;4.60;99.90;4.50;99381.00;;;;4903423;28;113263;-68
2024/01/02 06:14:44;;;;;;;0.43;0.43;;;5.20;99.90;4.50;99373.00;;;;4904627;28;123530;-68
2024/01/02 06:17:11;;;;;;;1.10;1.00;;;4.70;99.90;4.60;99372.00;;;;4900332;28;111429;-68
2024/01/02 06:19:37;;;;;;;1.97;0.83;;;4.70;99.90;4.60;99374.00;;;;4905840;28;92280;-68
2024/01/02 06:22:03;;;;;;;0.80;0.60;;;4.80;99.90;4.60;99363.00;;;;4901762;28;122327;-70
2024/01/02 06:24:29;;;;;;;1.17;0.40;;;4.80;99.90;4.60;99368.00;;;;4905155;28;93201;-70
2024/01/02 06:26:54;;;;;;;0.47;0.47;;;4.80;99.90;4.60;99356.00;;;;4900864;28;109341;-70
2024/01/02 06:29:21;;;;;;;0.83;0.50;;;5.40;99.90;4.60;99355.00;;;;4902509;28;110045;-68
2024/01/02 06:31:46;;;;;;;0.53;0.40;;;5.50;99.90;4.70;99344.00;;;;4900602;28;94580;-68
2024/01/02 06:34:12;;;;;;;0.67;0.57;;;4.90;99.90;4.70;99345.00;;;;4901583;28;93426;-68
2024/01/02 06:36:38;;;;;;;0.50;0.40;;;4.90;99.90;4.70;99339.00;;;;4905191;28;110689;-69
2024/01/02 06:39:04;;;;;;;1.23;0.80;;;4.90;99.90;4.70;99343.00;;;;4901694;28;93408;-69
2024/01/02 06:41:30;;;;;;;1.97;0.60;;;4.90;99.90;4.80;99335.00;;;;4902316;28;112706;-67
2024/01/02 06:43:55;;;;;;;0.97;0.67;;;5.00;99.90;4.80;99342.00;;;;4903337;28;121097;-70
2024/01/02 06:46:21;;;;;;;2.87;0.50;;;5.60;99.90;4.80;99346.00;;;;4900266;28;110264;-70
2024/01/02 06:48:46;;;;;;;0.90;0.60;;;5.70;99.90;4.90;99342.00;;;;4909361;28;107840;-68
2024/01/02 06:51:12;;;;;;;0.93;0.67;;;5.10;99.90;4.90;99331.00;;;;4897342;28;124110;-70
2024/01/02 06:53:38;;;;;;;0.30;0.30;;;5.10;99.90;4.90;99337.00;;;;4900871;28;123172;-70
2024/01/02 06:56:05;;;;;;;1.03;0.40;;;5.00;99.90;5.00;99343.00;;;;4896169;28;109772;-68
2024/01/02 06:58:31;;;;;;;6.67;3.60;;;5.20;99.90;5.00;99332.00;;;;4897158;28;92970;-68
2024/01/02 07:00:57;;;;;;;8.87;5.27;;;5.10;99.90;5.00;99334.00;;;;4896361;28;122985;-68
2024/01/02 07:03:22;;;;;;;7.00;4.80;;;5.90;99.90;5.10;99320.00;;;;4898456;28;123586;-69
2024/01/02 07:05:48;;;;;;;11.30;7.63;;;5.20;99.90;5.10;99324.00;;;;4898033;28;110311;-67
2024/01/02 07:08:14;;;;;;;3.67;2.87;;;5.20;99.90;5.10;99319.00;;;;4900680;28;109934;-68
2024/01/02 07:10:40;;;;;;;6.07;3.33;;;5.30;99.90;5.10;99319.00;;;;4897130;28;123099;-69
2024/01/02 07:13:07;;;;;;;2.30;1.33;;;5.50;99.90;5.20;99318.00;;;;4901278;28;93845;-68
2024/01/02 07:15:33;;;;;;;1.87;0.97;;;5.30;99.90;5.20;99318.00;;;;4900283;28;94043;-68
2024/01/02 07:17:58;;;;;;;0.67;0.67;;;5.40;99.90;5.20;99313.00;;;;4900992;28;98938;-68
2024/01/02 07:20:24;;;;;;;4.60;1.47;;;5.30;99.90;5.20;99308.00;;;;4896801;28;123154;-69
2024/01/02 07:22:50;;;;;;;0.97;0.77;;;5.30;99.90;5.20;99293.00;;;;4899060;28;100821;-70
2024/01/02 07:25:16;;;;;;;1.90;0.60;;;5.40;99.90;5.20;99293.00;;;;4896716;28;92796;-70
2024/01/02 07:27:42;;;;;;;0.63;0.63;;;5.30;99.90;5.20;99295.00;;;;4897165;28;101817;-70
2024/01/02 07:30:09;;;;;;;1.10;0.67;;;5.40;99.90;5.20;99290.00;;;;4898905;28;93773;-71
2024/01/02 07:32:34;;;;;;;2.00;0.77;;;5.30;99.90;5.20;99289.00;;;;4899918;28;112190;-69
2024/01/02 07:35:01;;;;;;;2.00;0.80;;;5.30;99.90;5.10;99286.00;;;;4896724;28;93976;-69
2024/01/02 07:37:27;;;;;;;0.97;0.60;;;5.30;99.90;5.10;99289.00;;;;4899022;28;93067;-70
2024/01/02 07:39:54;;;;;;;0.87;0.70;;;5.30;99.90;5.10;99273.00;;;;4901670;28;94240;-71
2024/01/02 07:42:20;;;;;;;8.80;1.40;;;5.30;99.90;5.10;99272.00;;;;4898297;28;94488;-70
2024/01/02 07:44:45;;;;;;;0.97;0.90;;;6.00;99.90;5.10;99269.00;;;;4895616;28;99394;-72
2024/01/02 07:47:11;;;;;;;1.30;1.13;;;5.30;99.90;5.10;99272.00;;;;4896403;28;107343;-69
2024/01/02 07:49:36;;;;;;;1.83;1.20;;;5.30;99.90;5.00;99260.00;;;;4901076;28;123077;-70
2024/01/02 07:52:02;;;;;;;14.40;5.20;;;5.80;99.90;5.00;99257.00;;;;4895030;28;116713;-72
2024/01/02 07:54:28;;;;;;;3.53;2.03;;;5.20;99.90;5.00;99251.00;;;;4895836;28;101706;-71
2024/01/02 07:56:54;;;;;;;2.00;1.43;;;5.20;99.90;5.00;99242.00;;;;4900749;28;92510;-69
2024/01/02 07:59:21;;;;;;;3.20;2.30;;;5.10;99.90;5.00;99246.00;;;;4896397;28;123105;-70
2024/01/02 08:01:50;;;;;;;3.23;2.60;;;5.70;99.90;5.00;99240.00;;;;4902385;28;93458;-71
2024/01/02 08:04:16;;;;;;;6.43;3.57;;;5.10;99.90;4.90;99231.00;;;;4897621;28;93952;-70
2024/01/02 08:06:41;;;;;;;5.57;2.80;;;5.20;99.90;4.90;99230.00;;;;4897642;28;93196;-68
2024/01/02 08:09:07;;;;;;;4.07;3.07;;;5.10;99.90;4.90;99231.00;;;;4895195;28;93857;-68
2024/01/02 08:11:33;;;;;;;2.87;2.40;;;5.10;99.90;4.90;99229.00;;;;4894030;28;121628;-70
2024/01/02 08:13:58;;;;;;;2.10;1.00;;;5.30;99.90;4.90;99201.00;;;;4904016;28;108580;-69
2024/01/02 08:16:24;;;;;;;10.07;4.80;;;5.10;99.90;4.90;99211.00;;;;4905320;28;109673;-69
2024/01/02 08:18:50;;;;;;;3.90;2.33;;;5.10;99.90;4.90;99209.00;;;;4898359;28;122215;-70
2024/01/02 08:21:15;;;;;;;4.60;2.87;;;5.10;99.90;4.90;99211.00;;;;4896848;28;92199;-72
2024/01/02 08:23:41;;;;;;;10.03;3.90;;;5.10;99.90;4.90;99207.00;;;;4894742;28;110490;-67
2024/01/02 08:26:15;;;;;;;4.77;1.90;;;5.10;99.90;4.90;99198.00;;;;4897156;28;108241;-70
2024/01/02 08:28:41;;;;;;;2.73;1.77;;;5.00;99.90;4.90;99194.00;;;;4896980;28;94949;-70
2024/01/02 08:31:07;;;;;;;4.47;1.87;;;5.70;99.90;4.90;99190.00;;;;4900827;28;95862;-68
2024/01/02 08:33:33;;;;;;;6.13;3.57;;;5.00;99.90;4.90;99194.00;;;;4898749;28;93128;-69
2024/01/02 08:35:58;;;;;;;5.07;3.23;;;5.80;99.90;4.90;99193.00;;;;4897661;28;108015;-67
2024/01/02 08:38:24;;;;;;;1.80;1.23;;;5.10;99.90;4.90;99181.00;;;;4895856;28;122759;-70
2024/01/02 08:40:50;;;;;;;9.90;3.37;;;5.00;99.90;4.90;99169.00;;;;4915143;28;94617;-68
2024/01/02 08:43:17;;;;;;;9.33;4.63;;;5.00;99.90;4.90;99179.00;;;;4896996;28;93298;-69
2024/01/02 08:45:43;;;;;;;9.67;6.13;;;5.00;99.90;4.90;99176.00;;;;4898446;28;92120;-68
2024/01/02 08:48:12;;;;;;;4.43;2.73;;;5.00;99.90;4.90;99167.00;;;;4896401;28;93564;-67
2024/01/02 08:50:42;;;;;;;1.70;1.20;;;5.60;99.90;4.90;99168.00;;;;4898787;28;93228;-71
2024/01/02 08:53:10;;;;;;;3.63;2.53;;;5.50;99.90;4.80;99170.00;;;;4899686;28;94684;-70
2024/01/02 08:55:36;;;;;;;1.83;1.23;;;5.00;99.90;4.80;99179.00;;;;4900161;28;97194;-69
2024/01/02 08:58:05;;;;;;;4.20;1.83;;;5.00;99.90;4.80;99171.00;;;;4895703;28;93529;-72
2024/01/02 09:00:32;;;;;;;3.30;1.23;;;5.10;99.90;4.80;99165.00;;;;4895942;28;94392;-70
2024/01/02 09:03:01;;;;;;;2.70;1.33;;;5.70;99.90;4.80;99163.00;;;;4893658;28;92814;-72
2024/01/02 09:05:27;;;;;;;3.10;0.87;;;5.10;99.90;4.80;99162.00;;;;4895462;28;92977;-70
2024/01/02 09:07:53;;;;;;;1.83;1.10;;;4.90;99.90;4.80;99156.00;;;;4893308;28;121774;-70
2024/01/02 09:10:19;;;;;;;0.70;0.70;;;4.90;99.90;4.80;99168.00;;;;4883459;28;94319;-71
2024/01/02 09:12:45;;;;;;;1.00;0.90;;;5.00;99.90;4.70;99157.00;;;;4894625;28;110281;-70
2024/01/02 09:15:10;;;;;;;1.40;1.30;;;5.00;99.90;4.80;99158.00;;;;4894519;28;108246;-70
2024/01/02 09:17:36;;;;;;;2.43;1.80;;;5.00;99.90;4.80;99155.00;;;;4900863;28;97935;-68
2024/01/02 09:20:05;;;;;;;2.20;2.00;;;4.90;99.90;4.80;99150.00;;;;4894892;28;124316;-69
2024/01/02 09:22:31;;;;;;;2.17;1.97;;;5.00;99.90;4.80;99132.00;;;;4892360;28;103334;-68
2024/01/02 09:24:59;;;;;;;1.23;0.97;;;5.00;99.90;4.80;99127.00;;;;4896403;28;109802;-69
2024/01/02 09:27:28;;;;;;;1.30;1.20;;;4.90;99.90;4.80;99120.00;;;;4894446;28;101488;-67
2024/01/02 09:29:54;;;;;;;1.00;1.00;;;4.90;99.90;4.80;99124.00;;;;4896154;28;93265;-68
2024/01/02 09:32:20;;;;;;;3.30;1.40;;;5.00;99.90;4.80;99112.00;;;;4893919;28;98034;-69
2024/01/02 09:34:45;;;;;;;1.17;1.07;;;4.90;99.90;4.80;99103.00;;;;4895737;28;108049;-69
2024/01/02 09:37:11;;;;;;;1.23;1.13;;;5.00;99.90;4.80;99103.00;;;;4894694;28;93178;-69
2024/01/02 09:39:38;;;;;;;1.57;0.77;;;5.10;99.90;4.80;99101.00;;;;4896275;28;122252;-68
2024/01/02 09:42:37;;;;;;;2.30;1.33;;;5.60;99.90;4.80;99102.00;;;;4895976;28;110929;-69
2024/01/02 09:45:18;;;;;;;3.00;0.90;;;5.70;99.90;4.80;99086.00;;;;4910779;28;97865;-70
2024/01/02 09:48:24;;;;;;;5.47;1.67;;;5.40;99.90;4.80;99083.00;;;;4913051;28;94751;-68
2024/01/02 09:51:09;;;;;;;1.43;1.13;;;5.00;99.90;4.80;99073.00;;;;4902120;28;94661;-70
2024/01/02 09:54:11;;;;;;;3.20;1.20;;;5.00;99.90;4.80;99063.00;;;;4911659;28;94638;-70
2024/01/02 09:57:00;;;;;;;0.43;0.43;;;5.00;99.90;4.90;99063.00;;;;4916176;28;93710;-68
2024/01/02 10:00:17;;;;;;;1.87;1.77;;;5.00;99.90;4.80;99058.00;;;;4885757;28;99873;-68
2024/01/02 10:03:05;;;;;;;1.17;0.90;;;5.10;99.90;4.90;99041.00;;;;4904478;28;112269;-70
2024/01/02 10:06:05;;;;;;;7.60;2.57;;;5.10;99.90;4.90;99030.00;;;;4903600;28;93238;-68
2024/01/02 10:09:09;;;;;;;1.97;1.53;;;5.10;99.90;4.90;99020.00;;;;4900133;28;93123;-67
2024/01/02 10:11:59;;;;;;;1.13;0.77;;;5.10;99.90;4.90;99011.00;;;;4910949;28;94100;-68
2024/01/02 10:15:03;;;;;;;2.17;0.93;;;5.00;99.90;5.00;99011.00;;;;4914637;28;93210;-69
2024/01/02 10:18:24;;;;;;;1.10;0.77;;;5.70;99.90;5.00;98994.00;;;;4897361;28;93420;-69
2024/01/02 10:21:16;;;;;;;0.63;0.40;;;5.10;99.90;5.10;98995.00;;;;4875561;28;92806;-68
2024/01/02 10:24:02;;;;;;;0.83;0.50;;;5.30;99.90;5.10;98987.00;;;;4899752;28;112680;-70
2024/01/02 10:26:32;;;;;;;2.40;0.50;;;5.30;99.90;5.20;98990.00;;;;4900746;28;92813;-70
2024/01/02 10:29:05;;;;;;;0.73;0.60;;;5.80;99.90;5.10;98978.00;;;;4027228;28;10000544;-69
2024/01/02 10:31:58;;;;;;;1.93;1.10;;;5.50;99.90;5.20;98973.00;;;;4910737;28;93835;-69
2024/01/02 10:35:05;;;;;;;1.40;1.00;;;5.40;99.90;5.20;98968.00;;;;4888108;28;103470;-68
2024/01/02 10:37:39;;;;;;;1.53;0.77;;;5.40;99.90;5.20;98956.00;;;;4898533;28;92929;-71
2024/01/02 10:40:14;;;;;;;0.50;0.50;;;6.10;99.90;5.20;98959.00;;;;4911870;28;94040;-71
2024/01/02 10:43:07;;;;;;;0.50;0.50;;;5.40;99.90;5.10;98960.00;;;;4914129;28;94012;-70
2024/01/02 10:45:57;;;;;;;0.97;0.80;;;5.40;99.90;5.20;98949.00;;;;4897585;28;93284;-70
2024/01/02 10:48:56;;;;;;;1.67;0.70;;;5.40;99.90;5.20;98955.00;;;;4911480;28;92984;-70
2024/01/02 10:51:41;;;;;;;0.67;0.67;;;5.40;99.90;5.20;98923.00;;;;4898460;28;93651;-71
2024/01/02 10:54:35;;;;;;;1.13;0.50;;;5.40;99.90;5.20;98918.00;;;;4898456;28;93066;-69
2024/01/02 10:57:05;;;;;;;2.73;1.03;;;5.40;99.90;5.20;98912.00;;;;4910819;28;94076;-70
2024/01/02 11:00:10;;;;;;;0.30;0.30;;;5.50;99.90;5.20;98902.00;;;;4912410;28;92465;-68
2024/01/02 11:02:57;;;;;;;0.60;0.60;;;5.40;99.90;5.20;98890.00;;;;4896770;28;93082;-71
2024/01/02 11:05:44;;;;;;;0.57;0.50;;;5.60;99.90;5.20;98897.00;;;;4898798;28;92950;-69
2024/01/02 11:08:31;;;;;;;0.80;0.50;;;5.40;99.90;5.20;98898.00;;;;4898229;28;95117;-69
2024/01/02 11:11:02;;;;;;;1.13;0.77;;;5.40;99.90;5.20;98889.00;;;;4899353;28;93099;-69
2024/01/02 11:13:29;;;;;;;2.50;0.47;;;5.40;99.90;5.20;98886.00;;;;4897813;28;93254;-68